sensor_id;sensor_type;location;lat;lon;timestamp;P1;durP1;ratioP1;P2;durP2;ratioP2
76935;SDS011;65881;52.438;16.744;2023-07-13T00:01:44;3.90;;;2.92;;
76935;SDS011;65881;52.438;16.744;2023-07-13T00:04:13;4.45;;;3.95;;
76935;SDS011;65881;52.438;16.744;2023-07-13T00:06:39;4.28;;;2.50;;
76935;SDS011;65881;52.438;16.744;2023-07-13T00:09:04;3.42;;;2.65;;
76935;SDS011;65881;52.438;16.744;2023-07-13T00:11:31;3.58;;;2.65;;
76935;SDS011;65881;52.438;16.744;2023-07-13T00:13:57;2.47;;;2.28;;
76935;SDS011;65881;52.438;16.744;2023-07-13T00:16:23;3.00;;;2.60;;
76935;SDS011;65881;52.438;16.744;2023-07-13T00:18:48;4.13;;;2.42;;
76935;SDS011;65881;52.438;16.744;2023-07-13T00:21:17;4.38;;;2.55;;
76935;SDS011;65881;52.438;16.744;2023-07-13T00:23:45;2.88;;;2.38;;
76935;SDS011;65881;52.438;16.744;2023-07-13T00:26:11;3.65;;;2.45;;
76935;SDS011;65881;52.438;16.744;2023-07-13T00:28:37;4.20;;;2.92;;
76935;SDS011;65881;52.438;16.744;2023-07-13T00:31:04;4.93;;;3.22;;
76935;SDS011;65881;52.438;16.744;2023-07-13T00:33:30;3.85;;;2.60;;
76935;SDS011;65881;52.438;16.744;2023-07-13T00:35:56;6.13;;;2.80;;
76935;SDS011;65881;52.438;16.744;2023-07-13T00:38:22;4.13;;;3.00;;
76935;SDS011;65881;52.438;16.744;2023-07-13T00:40:49;3.03;;;2.22;;
76935;SDS011;65881;52.438;16.744;2023-07-13T00:43:15;3.50;;;2.78;;
76935;SDS011;65881;52.438;16.744;2023-07-13T00:48:08;4.88;;;3.05;;
76935;SDS011;65881;52.438;16.744;2023-07-13T00:50:39;3.83;;;3.00;;
76935;SDS011;65881;52.438;16.744;2023-07-13T00:53:06;3.80;;;2.92;;
76935;SDS011;65881;52.438;16.744;2023-07-13T00:55:33;3.90;;;2.38;;
76935;SDS011;65881;52.438;16.744;2023-07-13T00:58:04;3.97;;;2.53;;
76935;SDS011;65881;52.438;16.744;2023-07-13T01:00:31;4.70;;;2.80;;
76935;SDS011;65881;52.438;16.744;2023-07-13T01:03:01;4.32;;;2.97;;
76935;SDS011;65881;52.438;16.744;2023-07-13T01:05:29;3.38;;;2.60;;
76935;SDS011;65881;52.438;16.744;2023-07-13T01:07:57;4.50;;;2.58;;
76935;SDS011;65881;52.438;16.744;2023-07-13T01:10:24;2.95;;;2.42;;
76935;SDS011;65881;52.438;16.744;2023-07-13T01:12:51;3.88;;;2.83;;
76935;SDS011;65881;52.438;16.744;2023-07-13T01:18:24;4.70;;;2.90;;
76935;SDS011;65881;52.438;16.744;2023-07-13T01:20:52;4.05;;;2.80;;
76935;SDS011;65881;52.438;16.744;2023-07-13T01:23:22;3.63;;;2.65;;
76935;SDS011;65881;52.438;16.744;2023-07-13T01:25:58;4.63;;;3.05;;
76935;SDS011;65881;52.438;16.744;2023-07-13T01:28:25;4.25;;;2.75;;
76935;SDS011;65881;52.438;16.744;2023-07-13T01:30:52;3.80;;;2.70;;
76935;SDS011;65881;52.438;16.744;2023-07-13T01:33:18;3.92;;;2.83;;
76935;SDS011;65881;52.438;16.744;2023-07-13T01:35:45;5.18;;;3.38;;
76935;SDS011;65881;52.438;16.744;2023-07-13T01:38:13;4.47;;;3.38;;
76935;SDS011;65881;52.438;16.744;2023-07-13T01:40:40;3.35;;;2.70;;
76935;SDS011;65881;52.438;16.744;2023-07-13T01:43:05;4.07;;;2.92;;
76935;SDS011;65881;52.438;16.744;2023-07-13T01:45:31;3.22;;;2.90;;
76935;SDS011;65881;52.438;16.744;2023-07-13T01:47:57;3.95;;;3.00;;
76935;SDS011;65881;52.438;16.744;2023-07-13T01:50:23;3.85;;;2.47;;
76935;SDS011;65881;52.438;16.744;2023-07-13T01:53:01;8.05;;;3.30;;
76935;SDS011;65881;52.438;16.744;2023-07-13T01:55:27;5.20;;;3.03;;
76935;SDS011;65881;52.438;16.744;2023-07-13T01:57:54;3.78;;;3.20;;
76935;SDS011;65881;52.438;16.744;2023-07-13T02:00:21;4.97;;;3.78;;
76935;SDS011;65881;52.438;16.744;2023-07-13T02:02:47;5.50;;;2.78;;
76935;SDS011;65881;52.438;16.744;2023-07-13T02:05:12;4.45;;;3.03;;
76935;SDS011;65881;52.438;16.744;2023-07-13T02:07:39;3.45;;;2.80;;
76935;SDS011;65881;52.438;16.744;2023-07-13T02:10:05;4.15;;;3.17;;
76935;SDS011;65881;52.438;16.744;2023-07-13T02:12:33;4.78;;;3.33;;
76935;SDS011;65881;52.438;16.744;2023-07-13T02:14:58;3.00;;;2.70;;
76935;SDS011;65881;52.438;16.744;2023-07-13T02:17:26;3.38;;;3.08;;
76935;SDS011;65881;52.438;16.744;2023-07-13T02:19:52;3.30;;;2.97;;
76935;SDS011;65881;52.438;16.744;2023-07-13T02:22:18;3.30;;;2.88;;
76935;SDS011;65881;52.438;16.744;2023-07-13T02:24:44;4.57;;;3.10;;
76935;SDS011;65881;52.438;16.744;2023-07-13T02:27:09;4.80;;;3.17;;
76935;SDS011;65881;52.438;16.744;2023-07-13T02:29:35;5.55;;;3.63;;
76935;SDS011;65881;52.438;16.744;2023-07-13T02:32:01;4.38;;;3.20;;
76935;SDS011;65881;52.438;16.744;2023-07-13T02:34:26;4.22;;;3.25;;
76935;SDS011;65881;52.438;16.744;2023-07-13T02:36:53;5.63;;;3.60;;
76935;SDS011;65881;52.438;16.744;2023-07-13T02:39:19;3.60;;;3.22;;
76935;SDS011;65881;52.438;16.744;2023-07-13T02:41:44;4.60;;;3.97;;
76935;SDS011;65881;52.438;16.744;2023-07-13T02:44:12;7.18;;;4.47;;
76935;SDS011;65881;52.438;16.744;2023-07-13T02:46:38;6.50;;;5.80;;
76935;SDS011;65881;52.438;16.744;2023-07-13T02:49:07;9.50;;;7.22;;
76935;SDS011;65881;52.438;16.744;2023-07-13T02:51:33;10.05;;;8.18;;
76935;SDS011;65881;52.438;16.744;2023-07-13T02:54:02;8.18;;;4.70;;
76935;SDS011;65881;52.438;16.744;2023-07-13T02:56:30;5.82;;;4.32;;
76935;SDS011;65881;52.438;16.744;2023-07-13T02:59:03;6.15;;;4.15;;
76935;SDS011;65881;52.438;16.744;2023-07-13T03:01:29;4.53;;;4.13;;
76935;SDS011;65881;52.438;16.744;2023-07-13T03:03:55;5.93;;;5.35;;
76935;SDS011;65881;52.438;16.744;2023-07-13T03:06:25;6.93;;;5.43;;
76935;SDS011;65881;52.438;16.744;2023-07-13T03:08:55;6.18;;;5.18;;
76935;SDS011;65881;52.438;16.744;2023-07-13T03:11:21;7.53;;;4.80;;
76935;SDS011;65881;52.438;16.744;2023-07-13T03:13:47;8.07;;;5.32;;
76935;SDS011;65881;52.438;16.744;2023-07-13T03:16:13;9.50;;;6.47;;
76935;SDS011;65881;52.438;16.744;2023-07-13T03:18:40;7.15;;;3.92;;
76935;SDS011;65881;52.438;16.744;2023-07-13T03:21:06;5.85;;;5.22;;
76935;SDS011;65881;52.438;16.744;2023-07-13T03:23:32;5.85;;;4.93;;
76935;SDS011;65881;52.438;16.744;2023-07-13T03:26:02;6.72;;;5.22;;
76935;SDS011;65881;52.438;16.744;2023-07-13T03:28:29;6.20;;;4.85;;
76935;SDS011;65881;52.438;16.744;2023-07-13T03:31:11;4.97;;;4.47;;
76935;SDS011;65881;52.438;16.744;2023-07-13T03:33:41;5.85;;;4.63;;
76935;SDS011;65881;52.438;16.744;2023-07-13T03:36:09;6.78;;;4.97;;
76935;SDS011;65881;52.438;16.744;2023-07-13T03:38:37;8.45;;;5.88;;
76935;SDS011;65881;52.438;16.744;2023-07-13T03:41:03;5.43;;;4.68;;
76935;SDS011;65881;52.438;16.744;2023-07-13T03:43:28;7.32;;;5.32;;
76935;SDS011;65881;52.438;16.744;2023-07-13T03:45:54;6.95;;;5.32;;
76935;SDS011;65881;52.438;16.744;2023-07-13T03:48:20;5.55;;;4.97;;
76935;SDS011;65881;52.438;16.744;2023-07-13T03:50:47;6.82;;;5.55;;
76935;SDS011;65881;52.438;16.744;2023-07-13T03:53:15;6.32;;;5.60;;
76935;SDS011;65881;52.438;16.744;2023-07-13T03:55:40;6.82;;;5.68;;
76935;SDS011;65881;52.438;16.744;2023-07-13T04:00:56;9.35;;;6.78;;
76935;SDS011;65881;52.438;16.744;2023-07-13T04:03:22;11.70;;;8.23;;
76935;SDS011;65881;52.438;16.744;2023-07-13T04:05:48;9.85;;;7.60;;
76935;SDS011;65881;52.438;16.744;2023-07-13T04:08:14;8.93;;;7.75;;
76935;SDS011;65881;52.438;16.744;2023-07-13T04:10:40;7.90;;;7.10;;
76935;SDS011;65881;52.438;16.744;2023-07-13T04:13:06;7.57;;;6.50;;
76935;SDS011;65881;52.438;16.744;2023-07-13T04:15:32;7.35;;;6.60;;
76935;SDS011;65881;52.438;16.744;2023-07-13T04:17:58;6.70;;;6.07;;
76935;SDS011;65881;52.438;16.744;2023-07-13T04:20:25;8.07;;;6.50;;
76935;SDS011;65881;52.438;16.744;2023-07-13T04:25:22;8.00;;;7.20;;
76935;SDS011;65881;52.438;16.744;2023-07-13T04:27:49;11.52;;;7.72;;
76935;SDS011;65881;52.438;16.744;2023-07-13T04:30:17;9.77;;;6.82;;
76935;SDS011;65881;52.438;16.744;2023-07-13T04:32:42;9.77;;;7.70;;
76935;SDS011;65881;52.438;16.744;2023-07-13T04:35:08;11.43;;;6.68;;
76935;SDS011;65881;52.438;16.744;2023-07-13T04:40:09;9.05;;;6.95;;
76935;SDS011;65881;52.438;16.744;2023-07-13T04:42:37;8.45;;;7.00;;
76935;SDS011;65881;52.438;16.744;2023-07-13T04:45:15;8.82;;;7.18;;
76935;SDS011;65881;52.438;16.744;2023-07-13T04:47:42;12.45;;;7.00;;
76935;SDS011;65881;52.438;16.744;2023-07-13T04:50:08;14.18;;;7.20;;
76935;SDS011;65881;52.438;16.744;2023-07-13T04:55:18;8.48;;;7.55;;
76935;SDS011;65881;52.438;16.744;2023-07-13T04:57:44;8.38;;;7.57;;
76935;SDS011;65881;52.438;16.744;2023-07-13T05:00:10;9.45;;;8.35;;
76935;SDS011;65881;52.438;16.744;2023-07-13T05:02:43;8.00;;;7.20;;
76935;SDS011;65881;52.438;16.744;2023-07-13T05:05:11;11.70;;;8.88;;
76935;SDS011;65881;52.438;16.744;2023-07-13T05:07:36;11.75;;;8.43;;
76935;SDS011;65881;52.438;16.744;2023-07-13T05:10:02;8.13;;;6.78;;
76935;SDS011;65881;52.438;16.744;2023-07-13T05:12:29;9.80;;;8.15;;
76935;SDS011;65881;52.438;16.744;2023-07-13T05:14:55;12.57;;;9.77;;
76935;SDS011;65881;52.438;16.744;2023-07-13T05:17:21;14.13;;;9.23;;
76935;SDS011;65881;52.438;16.744;2023-07-13T05:19:47;10.57;;;8.10;;
76935;SDS011;65881;52.438;16.744;2023-07-13T05:22:12;10.10;;;8.23;;
76935;SDS011;65881;52.438;16.744;2023-07-13T05:24:38;17.30;;;12.50;;
76935;SDS011;65881;52.438;16.744;2023-07-13T05:27:04;15.65;;;10.98;;
76935;SDS011;65881;52.438;16.744;2023-07-13T05:29:35;11.05;;;8.85;;
76935;SDS011;65881;52.438;16.744;2023-07-13T05:32:01;10.95;;;9.00;;
76935;SDS011;65881;52.438;16.744;2023-07-13T05:34:30;11.18;;;10.07;;
76935;SDS011;65881;52.438;16.744;2023-07-13T05:36:59;13.45;;;10.85;;
76935;SDS011;65881;52.438;16.744;2023-07-13T05:39:25;11.55;;;9.05;;
76935;SDS011;65881;52.438;16.744;2023-07-13T05:41:52;16.33;;;8.52;;
76935;SDS011;65881;52.438;16.744;2023-07-13T05:44:18;10.63;;;7.90;;
76935;SDS011;65881;52.438;16.744;2023-07-13T05:46:44;12.93;;;9.45;;
76935;SDS011;65881;52.438;16.744;2023-07-13T05:49:10;9.65;;;8.25;;
76935;SDS011;65881;52.438;16.744;2023-07-13T05:51:36;9.35;;;8.32;;
76935;SDS011;65881;52.438;16.744;2023-07-13T05:54:03;11.50;;;10.20;;
76935;SDS011;65881;52.438;16.744;2023-07-13T05:56:29;10.30;;;9.23;;
76935;SDS011;65881;52.438;16.744;2023-07-13T05:58:54;9.18;;;7.75;;
76935;SDS011;65881;52.438;16.744;2023-07-13T06:01:21;9.02;;;7.97;;
76935;SDS011;65881;52.438;16.744;2023-07-13T06:03:47;8.82;;;6.88;;
76935;SDS011;65881;52.438;16.744;2023-07-13T06:06:13;9.25;;;7.95;;
76935;SDS011;65881;52.438;16.744;2023-07-13T06:08:39;12.25;;;7.57;;
76935;SDS011;65881;52.438;16.744;2023-07-13T06:13:40;10.85;;;7.72;;
76935;SDS011;65881;52.438;16.744;2023-07-13T06:16:06;12.02;;;8.02;;
76935;SDS011;65881;52.438;16.744;2023-07-13T06:18:32;9.73;;;7.88;;
76935;SDS011;65881;52.438;16.744;2023-07-13T06:20:59;9.90;;;8.05;;
76935;SDS011;65881;52.438;16.744;2023-07-13T06:23:25;10.27;;;7.63;;
76935;SDS011;65881;52.438;16.744;2023-07-13T06:25:51;9.82;;;7.72;;
76935;SDS011;65881;52.438;16.744;2023-07-13T06:28:19;9.10;;;7.45;;
76935;SDS011;65881;52.438;16.744;2023-07-13T06:30:45;9.30;;;7.97;;
76935;SDS011;65881;52.438;16.744;2023-07-13T06:33:11;10.13;;;8.50;;
76935;SDS011;65881;52.438;16.744;2023-07-13T06:35:36;16.08;;;8.95;;
76935;SDS011;65881;52.438;16.744;2023-07-13T06:38:02;11.20;;;7.38;;
76935;SDS011;65881;52.438;16.744;2023-07-13T06:40:28;13.52;;;9.13;;
76935;SDS011;65881;52.438;16.744;2023-07-13T06:42:55;12.80;;;7.72;;
76935;SDS011;65881;52.438;16.744;2023-07-13T06:45:21;10.82;;;7.72;;
76935;SDS011;65881;52.438;16.744;2023-07-13T06:47:47;10.60;;;8.93;;
76935;SDS011;65881;52.438;16.744;2023-07-13T06:50:13;12.60;;;9.57;;
76935;SDS011;65881;52.438;16.744;2023-07-13T06:52:43;11.32;;;9.52;;
76935;SDS011;65881;52.438;16.744;2023-07-13T06:55:11;8.98;;;7.88;;
76935;SDS011;65881;52.438;16.744;2023-07-13T06:57:37;9.93;;;6.78;;
76935;SDS011;65881;52.438;16.744;2023-07-13T07:00:03;7.20;;;5.57;;
76935;SDS011;65881;52.438;16.744;2023-07-13T07:02:30;6.93;;;5.43;;
76935;SDS011;65881;52.438;16.744;2023-07-13T07:04:56;9.20;;;6.00;;
76935;SDS011;65881;52.438;16.744;2023-07-13T07:07:23;9.45;;;6.55;;
76935;SDS011;65881;52.438;16.744;2023-07-13T07:09:50;7.60;;;5.60;;
76935;SDS011;65881;52.438;16.744;2023-07-13T07:12:15;8.45;;;6.18;;
76935;SDS011;65881;52.438;16.744;2023-07-13T07:14:44;7.90;;;5.03;;
76935;SDS011;65881;52.438;16.744;2023-07-13T07:17:09;8.73;;;5.28;;
76935;SDS011;65881;52.438;16.744;2023-07-13T07:19:43;6.03;;;5.10;;
76935;SDS011;65881;52.438;16.744;2023-07-13T07:22:08;6.70;;;5.30;;
76935;SDS011;65881;52.438;16.744;2023-07-13T07:24:34;6.72;;;5.38;;
76935;SDS011;65881;52.438;16.744;2023-07-13T07:29:30;5.43;;;4.93;;
76935;SDS011;65881;52.438;16.744;2023-07-13T07:31:58;7.07;;;5.70;;
76935;SDS011;65881;52.438;16.744;2023-07-13T07:34:27;5.82;;;4.65;;
76935;SDS011;65881;52.438;16.744;2023-07-13T07:36:53;6.75;;;4.97;;
76935;SDS011;65881;52.438;16.744;2023-07-13T07:39:19;8.23;;;4.70;;
76935;SDS011;65881;52.438;16.744;2023-07-13T07:41:45;6.88;;;4.90;;
76935;SDS011;65881;52.438;16.744;2023-07-13T07:44:10;9.32;;;4.03;;
76935;SDS011;65881;52.438;16.744;2023-07-13T07:46:36;6.85;;;4.45;;
76935;SDS011;65881;52.438;16.744;2023-07-13T07:49:02;5.65;;;4.30;;
76935;SDS011;65881;52.438;16.744;2023-07-13T07:51:30;5.50;;;3.92;;
76935;SDS011;65881;52.438;16.744;2023-07-13T07:53:56;5.45;;;4.60;;
76935;SDS011;65881;52.438;16.744;2023-07-13T07:56:21;6.65;;;4.28;;
76935;SDS011;65881;52.438;16.744;2023-07-13T07:58:47;6.13;;;4.60;;
76935;SDS011;65881;52.438;16.744;2023-07-13T08:01:19;5.53;;;4.93;;
76935;SDS011;65881;52.438;16.744;2023-07-13T08:03:45;6.88;;;4.38;;
76935;SDS011;65881;52.438;16.744;2023-07-13T08:06:11;6.28;;;4.20;;
76935;SDS011;65881;52.438;16.744;2023-07-13T08:08:37;14.77;;;5.20;;
76935;SDS011;65881;52.438;16.744;2023-07-13T08:11:03;7.07;;;4.35;;
76935;SDS011;65881;52.438;16.744;2023-07-13T08:13:30;9.48;;;4.50;;
76935;SDS011;65881;52.438;16.744;2023-07-13T08:15:56;9.95;;;4.32;;
76935;SDS011;65881;52.438;16.744;2023-07-13T08:18:21;4.53;;;4.03;;
76935;SDS011;65881;52.438;16.744;2023-07-13T08:20:50;5.68;;;4.07;;
76935;SDS011;65881;52.438;16.744;2023-07-13T08:23:16;5.93;;;4.63;;
76935;SDS011;65881;52.438;16.744;2023-07-13T08:25:42;5.30;;;3.97;;
76935;SDS011;65881;52.438;16.744;2023-07-13T08:28:15;7.63;;;4.20;;
76935;SDS011;65881;52.438;16.744;2023-07-13T08:30:41;4.50;;;4.10;;
76935;SDS011;65881;52.438;16.744;2023-07-13T08:33:07;5.18;;;3.70;;
76935;SDS011;65881;52.438;16.744;2023-07-13T08:35:33;6.05;;;4.10;;
76935;SDS011;65881;52.438;16.744;2023-07-13T08:37:58;8.35;;;3.75;;
76935;SDS011;65881;52.438;16.744;2023-07-13T08:40:25;5.93;;;3.72;;
76935;SDS011;65881;52.438;16.744;2023-07-13T08:42:59;4.82;;;3.83;;
76935;SDS011;65881;52.438;16.744;2023-07-13T08:48:01;5.38;;;3.70;;
76935;SDS011;65881;52.438;16.744;2023-07-13T08:50:39;5.18;;;3.67;;
76935;SDS011;65881;52.438;16.744;2023-07-13T08:53:14;5.82;;;5.07;;
76935;SDS011;65881;52.438;16.744;2023-07-13T08:55:41;4.93;;;3.80;;
76935;SDS011;65881;52.438;16.744;2023-07-13T08:58:15;4.75;;;3.35;;
76935;SDS011;65881;52.438;16.744;2023-07-13T09:00:56;5.28;;;4.28;;
76935;SDS011;65881;52.438;16.744;2023-07-13T09:03:42;4.60;;;3.55;;
76935;SDS011;65881;52.438;16.744;2023-07-13T09:06:28;6.15;;;3.95;;
76935;SDS011;65881;52.438;16.744;2023-07-13T09:09:02;11.70;;;4.53;;
76935;SDS011;65881;52.438;16.744;2023-07-13T09:17:41;10.55;;;4.57;;
76935;SDS011;65881;52.438;16.744;2023-07-13T09:22:41;5.50;;;4.72;;
76935;SDS011;65881;52.438;16.744;2023-07-13T09:27:38;6.97;;;4.60;;
76935;SDS011;65881;52.438;16.744;2023-07-13T09:32:41;6.25;;;4.22;;
76935;SDS011;65881;52.438;16.744;2023-07-13T09:35:15;6.32;;;4.15;;
76935;SDS011;65881;52.438;16.744;2023-07-13T09:40:21;4.60;;;3.65;;
76935;SDS011;65881;52.438;16.744;2023-07-13T09:43:04;6.93;;;4.18;;
76935;SDS011;65881;52.438;16.744;2023-07-13T09:45:41;5.47;;;3.75;;
76935;SDS011;65881;52.438;16.744;2023-07-13T09:48:13;8.05;;;4.63;;
76935;SDS011;65881;52.438;16.744;2023-07-13T09:50:48;7.63;;;4.55;;
76935;SDS011;65881;52.438;16.744;2023-07-13T09:53:18;5.78;;;4.63;;
76935;SDS011;65881;52.438;16.744;2023-07-13T09:55:46;9.82;;;5.07;;
76935;SDS011;65881;52.438;16.744;2023-07-13T09:58:17;8.70;;;5.43;;
76935;SDS011;65881;52.438;16.744;2023-07-13T10:00:55;7.55;;;5.07;;
76935;SDS011;65881;52.438;16.744;2023-07-13T10:03:24;6.72;;;5.00;;
76935;SDS011;65881;52.438;16.744;2023-07-13T10:06:01;8.68;;;4.72;;
76935;SDS011;65881;52.438;16.744;2023-07-13T10:08:37;8.50;;;4.47;;
76935;SDS011;65881;52.438;16.744;2023-07-13T10:11:09;6.80;;;4.65;;
76935;SDS011;65881;52.438;16.744;2023-07-13T10:21:22;5.53;;;3.90;;
76935;SDS011;65881;52.438;16.744;2023-07-13T10:23:54;5.80;;;3.95;;
76935;SDS011;65881;52.438;16.744;2023-07-13T10:26:31;11.45;;;4.13;;
76935;SDS011;65881;52.438;16.744;2023-07-13T10:29:02;8.20;;;4.55;;
76935;SDS011;65881;52.438;16.744;2023-07-13T10:31:32;6.57;;;3.90;;
76935;SDS011;65881;52.438;16.744;2023-07-13T10:34:08;7.45;;;4.28;;
76935;SDS011;65881;52.438;16.744;2023-07-13T10:36:39;5.78;;;4.95;;
76935;SDS011;65881;52.438;16.744;2023-07-13T10:39:11;7.07;;;4.05;;
76935;SDS011;65881;52.438;16.744;2023-07-13T10:41:51;6.45;;;4.57;;
76935;SDS011;65881;52.438;16.744;2023-07-13T10:44:30;3.58;;;2.90;;
76935;SDS011;65881;52.438;16.744;2023-07-13T10:47:04;4.53;;;2.42;;
76935;SDS011;65881;52.438;16.744;2023-07-13T10:49:34;5.72;;;2.55;;
76935;SDS011;65881;52.438;16.744;2023-07-13T10:52:01;3.92;;;2.60;;
76935;SDS011;65881;52.438;16.744;2023-07-13T10:54:34;5.35;;;2.97;;
76935;SDS011;65881;52.438;16.744;2023-07-13T10:59:46;7.82;;;3.03;;
76935;SDS011;65881;52.438;16.744;2023-07-13T11:05:13;2.95;;;2.63;;
76935;SDS011;65881;52.438;16.744;2023-07-13T11:08:12;5.00;;;2.97;;
76935;SDS011;65881;52.438;16.744;2023-07-13T11:10:53;8.38;;;3.25;;
76935;SDS011;65881;52.438;16.744;2023-07-13T11:13:55;3.80;;;2.83;;
76935;SDS011;65881;52.438;16.744;2023-07-13T11:21:33;3.78;;;2.80;;
76935;SDS011;65881;52.438;16.744;2023-07-13T11:31:43;4.70;;;3.20;;
76935;SDS011;65881;52.438;16.744;2023-07-13T11:34:27;4.28;;;2.80;;
76935;SDS011;65881;52.438;16.744;2023-07-13T11:36:56;4.30;;;2.83;;
76935;SDS011;65881;52.438;16.744;2023-07-13T11:42:00;3.88;;;2.95;;
76935;SDS011;65881;52.438;16.744;2023-07-13T11:44:30;4.50;;;2.97;;
76935;SDS011;65881;52.438;16.744;2023-07-13T11:47:07;5.05;;;3.00;;
76935;SDS011;65881;52.438;16.744;2023-07-13T11:49:41;4.35;;;3.15;;
76935;SDS011;65881;52.438;16.744;2023-07-13T11:52:11;3.38;;;2.63;;
76935;SDS011;65881;52.438;16.744;2023-07-13T12:00:11;3.58;;;2.60;;
76935;SDS011;65881;52.438;16.744;2023-07-13T12:02:43;4.00;;;3.17;;
76935;SDS011;65881;52.438;16.744;2023-07-13T12:05:14;3.88;;;2.30;;
76935;SDS011;65881;52.438;16.744;2023-07-13T12:07:49;5.03;;;3.13;;
76935;SDS011;65881;52.438;16.744;2023-07-13T12:13:03;3.90;;;3.10;;
76935;SDS011;65881;52.438;16.744;2023-07-13T12:15:41;5.15;;;2.47;;
76935;SDS011;65881;52.438;16.744;2023-07-13T12:18:13;3.75;;;2.58;;
76935;SDS011;65881;52.438;16.744;2023-07-13T12:23:28;5.45;;;2.80;;
76935;SDS011;65881;52.438;16.744;2023-07-13T12:25:56;4.10;;;2.35;;
76935;SDS011;65881;52.438;16.744;2023-07-13T12:28:46;6.43;;;2.80;;
76935;SDS011;65881;52.438;16.744;2023-07-13T12:31:45;4.30;;;2.53;;
76935;SDS011;65881;52.438;16.744;2023-07-13T12:34:12;4.30;;;2.45;;
76935;SDS011;65881;52.438;16.744;2023-07-13T12:36:47;3.38;;;2.50;;
76935;SDS011;65881;52.438;16.744;2023-07-13T12:42:27;5.00;;;2.40;;
76935;SDS011;65881;52.438;16.744;2023-07-13T12:44:54;7.97;;;3.63;;
76935;SDS011;65881;52.438;16.744;2023-07-13T12:47:23;2.80;;;2.20;;
76935;SDS011;65881;52.438;16.744;2023-07-13T12:49:50;3.78;;;2.10;;
76935;SDS011;65881;52.438;16.744;2023-07-13T12:52:22;6.50;;;3.17;;
76935;SDS011;65881;52.438;16.744;2023-07-13T12:55:06;5.40;;;2.30;;
76935;SDS011;65881;52.438;16.744;2023-07-13T12:57:42;3.42;;;2.70;;
76935;SDS011;65881;52.438;16.744;2023-07-13T13:00:20;4.53;;;2.40;;
76935;SDS011;65881;52.438;16.744;2023-07-13T13:02:49;4.57;;;2.30;;
76935;SDS011;65881;52.438;16.744;2023-07-13T13:05:20;5.32;;;2.30;;
76935;SDS011;65881;52.438;16.744;2023-07-13T13:07:50;3.83;;;2.28;;
76935;SDS011;65881;52.438;16.744;2023-07-13T13:10:16;2.80;;;2.05;;
76935;SDS011;65881;52.438;16.744;2023-07-13T13:12:42;3.67;;;2.50;;
76935;SDS011;65881;52.438;16.744;2023-07-13T13:15:10;5.00;;;2.67;;
76935;SDS011;65881;52.438;16.744;2023-07-13T13:17:36;3.58;;;2.50;;
76935;SDS011;65881;52.438;16.744;2023-07-13T13:20:15;2.70;;;2.38;;
76935;SDS011;65881;52.438;16.744;2023-07-13T13:22:54;3.97;;;2.53;;
76935;SDS011;65881;52.438;16.744;2023-07-13T13:25:21;4.55;;;2.20;;
76935;SDS011;65881;52.438;16.744;2023-07-13T13:27:47;3.10;;;2.33;;
76935;SDS011;65881;52.438;16.744;2023-07-13T13:30:15;5.55;;;2.67;;
76935;SDS011;65881;52.438;16.744;2023-07-13T13:32:44;5.88;;;3.38;;
76935;SDS011;65881;52.438;16.744;2023-07-13T13:35:18;4.80;;;2.78;;
76935;SDS011;65881;52.438;16.744;2023-07-13T13:37:45;3.97;;;2.35;;
76935;SDS011;65881;52.438;16.744;2023-07-13T13:40:20;2.85;;;2.15;;
76935;SDS011;65881;52.438;16.744;2023-07-13T13:42:50;2.70;;;2.13;;
76935;SDS011;65881;52.438;16.744;2023-07-13T13:45:17;3.92;;;2.17;;
76935;SDS011;65881;52.438;16.744;2023-07-13T13:47:43;5.10;;;3.30;;
76935;SDS011;65881;52.438;16.744;2023-07-13T13:50:17;3.30;;;2.30;;
76935;SDS011;65881;52.438;16.744;2023-07-13T13:52:45;4.70;;;2.42;;
76935;SDS011;65881;52.438;16.744;2023-07-13T13:55:12;4.28;;;2.35;;
76935;SDS011;65881;52.438;16.744;2023-07-13T13:57:42;2.92;;;2.20;;
76935;SDS011;65881;52.438;16.744;2023-07-13T14:00:09;4.30;;;2.25;;
76935;SDS011;65881;52.438;16.744;2023-07-13T14:02:39;4.00;;;2.33;;
76935;SDS011;65881;52.438;16.744;2023-07-13T14:05:09;14.35;;;2.97;;
76935;SDS011;65881;52.438;16.744;2023-07-13T14:07:37;3.03;;;2.38;;
76935;SDS011;65881;52.438;16.744;2023-07-13T14:10:05;3.55;;;2.53;;
76935;SDS011;65881;52.438;16.744;2023-07-13T14:12:43;4.93;;;2.55;;
76935;SDS011;65881;52.438;16.744;2023-07-13T14:15:15;3.10;;;2.20;;
76935;SDS011;65881;52.438;16.744;2023-07-13T14:17:45;4.45;;;2.85;;
76935;SDS011;65881;52.438;16.744;2023-07-13T14:20:13;2.92;;;2.25;;
76935;SDS011;65881;52.438;16.744;2023-07-13T14:22:40;3.97;;;2.53;;
76935;SDS011;65881;52.438;16.744;2023-07-13T14:25:10;3.20;;;2.40;;
76935;SDS011;65881;52.438;16.744;2023-07-13T14:27:37;3.83;;;2.40;;
76935;SDS011;65881;52.438;16.744;2023-07-13T14:30:07;2.60;;;2.08;;
76935;SDS011;65881;52.438;16.744;2023-07-13T14:32:42;4.47;;;2.58;;
76935;SDS011;65881;52.438;16.744;2023-07-13T14:35:11;4.20;;;3.25;;
76935;SDS011;65881;52.438;16.744;2023-07-13T14:37:41;3.53;;;2.15;;
76935;SDS011;65881;52.438;16.744;2023-07-13T14:40:12;5.93;;;2.40;;
76935;SDS011;65881;52.438;16.744;2023-07-13T14:42:40;3.97;;;2.35;;
76935;SDS011;65881;52.438;16.744;2023-07-13T14:45:12;2.80;;;2.35;;
76935;SDS011;65881;52.438;16.744;2023-07-13T14:47:38;4.10;;;2.55;;
76935;SDS011;65881;52.438;16.744;2023-07-13T14:50:04;4.47;;;2.25;;
76935;SDS011;65881;52.438;16.744;2023-07-13T14:52:30;3.03;;;2.20;;
76935;SDS011;65881;52.438;16.744;2023-07-13T14:54:56;4.03;;;2.08;;
76935;SDS011;65881;52.438;16.744;2023-07-13T14:57:21;3.47;;;2.40;;
76935;SDS011;65881;52.438;16.744;2023-07-13T14:59:51;3.95;;;2.53;;
76935;SDS011;65881;52.438;16.744;2023-07-13T15:02:18;5.28;;;2.40;;
76935;SDS011;65881;52.438;16.744;2023-07-13T15:04:51;3.25;;;2.92;;
76935;SDS011;65881;52.438;16.744;2023-07-13T15:07:18;10.15;;;3.03;;
76935;SDS011;65881;52.438;16.744;2023-07-13T15:09:46;3.75;;;2.33;;
76935;SDS011;65881;52.438;16.744;2023-07-13T15:12:12;5.75;;;2.47;;
76935;SDS011;65881;52.438;16.744;2023-07-13T15:14:39;4.28;;;2.45;;
76935;SDS011;65881;52.438;16.744;2023-07-13T15:19:56;3.83;;;2.25;;
76935;SDS011;65881;52.438;16.744;2023-07-13T15:22:27;3.60;;;2.38;;
76935;SDS011;65881;52.438;16.744;2023-07-13T15:24:53;4.20;;;2.40;;
76935;SDS011;65881;52.438;16.744;2023-07-13T15:27:19;3.97;;;2.58;;
76935;SDS011;65881;52.438;16.744;2023-07-13T15:29:45;5.00;;;2.70;;
76935;SDS011;65881;52.438;16.744;2023-07-13T15:32:13;4.30;;;2.38;;
76935;SDS011;65881;52.438;16.744;2023-07-13T15:34:39;3.80;;;2.83;;
76935;SDS011;65881;52.438;16.744;2023-07-13T15:37:14;3.55;;;2.45;;
76935;SDS011;65881;52.438;16.744;2023-07-13T15:39:41;4.18;;;2.60;;
76935;SDS011;65881;52.438;16.744;2023-07-13T15:44:45;3.95;;;2.30;;
76935;SDS011;65881;52.438;16.744;2023-07-13T15:47:12;3.63;;;2.50;;
76935;SDS011;65881;52.438;16.744;2023-07-13T15:49:39;5.43;;;2.50;;
76935;SDS011;65881;52.438;16.744;2023-07-13T15:52:10;4.35;;;2.65;;
76935;SDS011;65881;52.438;16.744;2023-07-13T15:54:48;5.95;;;2.90;;
76935;SDS011;65881;52.438;16.744;2023-07-13T15:57:14;3.42;;;2.30;;
76935;SDS011;65881;52.438;16.744;2023-07-13T15:59:40;3.28;;;2.58;;
76935;SDS011;65881;52.438;16.744;2023-07-13T16:02:19;4.32;;;2.50;;
76935;SDS011;65881;52.438;16.744;2023-07-13T16:04:49;5.70;;;2.35;;
76935;SDS011;65881;52.438;16.744;2023-07-13T16:07:23;6.30;;;2.58;;
76935;SDS011;65881;52.438;16.744;2023-07-13T16:09:50;3.10;;;2.47;;
76935;SDS011;65881;52.438;16.744;2023-07-13T16:12:16;6.15;;;2.63;;